sensor_id;sensor_type;location;lat;lon;timestamp;P1;durP1;ratioP1;P2;durP2;ratioP2
9997;SDS011;5038;53.064;8.624;2023-07-13T00:01:09;7.70;;;7.10;;
9997;SDS011;5038;53.064;8.624;2023-07-13T00:03:37;7.27;;;6.40;;
9997;SDS011;5038;53.064;8.624;2023-07-13T00:06:07;7.10;;;6.50;;
9997;SDS011;5038;53.064;8.624;2023-07-13T00:08:36;6.70;;;6.20;;
9997;SDS011;5038;53.064;8.624;2023-07-13T00:11:06;7.40;;;6.80;;
9997;SDS011;5038;53.064;8.624;2023-07-13T00:13:37;7.33;;;6.63;;
9997;SDS011;5038;53.064;8.624;2023-07-13T00:16:05;7.40;;;6.77;;
9997;SDS011;5038;53.064;8.624;2023-07-13T00:18:36;9.30;;;7.40;;
9997;SDS011;5038;53.064;8.624;2023-07-13T00:21:05;7.57;;;6.83;;
9997;SDS011;5038;53.064;8.624;2023-07-13T00:23:33;8.30;;;7.50;;
9997;SDS011;5038;53.064;8.624;2023-07-13T00:26:03;7.77;;;6.97;;
9997;SDS011;5038;53.064;8.624;2023-07-13T00:28:34;8.27;;;7.57;;
9997;SDS011;5038;53.064;8.624;2023-07-13T00:31:02;7.87;;;7.20;;
9997;SDS011;5038;53.064;8.624;2023-07-13T00:33:34;10.87;;;7.77;;
9997;SDS011;5038;53.064;8.624;2023-07-13T00:36:03;9.23;;;8.40;;
9997;SDS011;5038;53.064;8.624;2023-07-13T00:38:32;8.67;;;7.90;;
9997;SDS011;5038;53.064;8.624;2023-07-13T00:41:00;8.40;;;7.70;;
9997;SDS011;5038;53.064;8.624;2023-07-13T00:43:30;8.83;;;8.03;;
9997;SDS011;5038;53.064;8.624;2023-07-13T00:48:51;9.70;;;8.83;;
9997;SDS011;5038;53.064;8.624;2023-07-13T00:51:23;9.33;;;8.63;;
9997;SDS011;5038;53.064;8.624;2023-07-13T00:53:56;9.77;;;8.97;;
9997;SDS011;5038;53.064;8.624;2023-07-13T00:56:27;11.20;;;10.30;;
9997;SDS011;5038;53.064;8.624;2023-07-13T00:58:59;9.80;;;9.07;;
9997;SDS011;5038;53.064;8.624;2023-07-13T01:01:30;11.13;;;10.20;;
9997;SDS011;5038;53.064;8.624;2023-07-13T01:04:00;9.93;;;9.23;;
9997;SDS011;5038;53.064;8.624;2023-07-13T01:06:28;11.70;;;10.63;;
9997;SDS011;5038;53.064;8.624;2023-07-13T01:08:58;11.23;;;10.13;;
9997;SDS011;5038;53.064;8.624;2023-07-13T01:11:26;9.60;;;8.90;;
9997;SDS011;5038;53.064;8.624;2023-07-13T01:13:55;10.57;;;9.57;;
9997;SDS011;5038;53.064;8.624;2023-07-13T01:16:24;10.77;;;9.77;;
9997;SDS011;5038;53.064;8.624;2023-07-13T01:18:55;12.47;;;10.30;;
9997;SDS011;5038;53.064;8.624;2023-07-13T01:21:28;11.60;;;10.20;;
9997;SDS011;5038;53.064;8.624;2023-07-13T01:23:58;12.10;;;11.00;;
9997;SDS011;5038;53.064;8.624;2023-07-13T01:26:26;11.13;;;10.17;;
9997;SDS011;5038;53.064;8.624;2023-07-13T01:28:54;11.20;;;10.13;;
9997;SDS011;5038;53.064;8.624;2023-07-13T01:31:24;10.63;;;9.63;;
9997;SDS011;5038;53.064;8.624;2023-07-13T01:33:52;10.00;;;9.23;;
9997;SDS011;5038;53.064;8.624;2023-07-13T01:36:20;9.97;;;9.17;;
9997;SDS011;5038;53.064;8.624;2023-07-13T01:38:50;10.77;;;9.77;;
9997;SDS011;5038;53.064;8.624;2023-07-13T01:41:18;11.00;;;9.97;;
9997;SDS011;5038;53.064;8.624;2023-07-13T01:43:46;11.20;;;10.10;;
9997;SDS011;5038;53.064;8.624;2023-07-13T01:46:16;10.30;;;9.50;;
9997;SDS011;5038;53.064;8.624;2023-07-13T01:48:49;11.40;;;10.30;;
9997;SDS011;5038;53.064;8.624;2023-07-13T01:51:18;10.10;;;9.20;;
9997;SDS011;5038;53.064;8.624;2023-07-13T01:53:46;11.20;;;9.43;;
9997;SDS011;5038;53.064;8.624;2023-07-13T01:56:17;9.63;;;8.83;;
9997;SDS011;5038;53.064;8.624;2023-07-13T01:58:46;10.10;;;9.30;;
9997;SDS011;5038;53.064;8.624;2023-07-13T02:01:15;10.10;;;9.30;;
9997;SDS011;5038;53.064;8.624;2023-07-13T02:03:43;10.33;;;9.33;;
9997;SDS011;5038;53.064;8.624;2023-07-13T02:06:13;10.23;;;9.33;;
9997;SDS011;5038;53.064;8.624;2023-07-13T02:08:41;11.33;;;10.33;;
9997;SDS011;5038;53.064;8.624;2023-07-13T02:11:09;11.13;;;10.23;;
9997;SDS011;5038;53.064;8.624;2023-07-13T02:13:39;11.33;;;8.87;;
9997;SDS011;5038;53.064;8.624;2023-07-13T02:16:07;10.70;;;9.73;;
9997;SDS011;5038;53.064;8.624;2023-07-13T02:18:36;10.60;;;9.80;;
9997;SDS011;5038;53.064;8.624;2023-07-13T02:21:04;11.33;;;10.33;;
9997;SDS011;5038;53.064;8.624;2023-07-13T02:23:32;11.00;;;10.10;;
9997;SDS011;5038;53.064;8.624;2023-07-13T02:26:01;10.17;;;9.20;;
9997;SDS011;5038;53.064;8.624;2023-07-13T02:28:31;12.20;;;9.20;;
9997;SDS011;5038;53.064;8.624;2023-07-13T02:31:05;12.47;;;11.40;;
9997;SDS011;5038;53.064;8.624;2023-07-13T02:33:34;11.07;;;10.17;;
9997;SDS011;5038;53.064;8.624;2023-07-13T02:36:02;11.70;;;10.60;;
9997;SDS011;5038;53.064;8.624;2023-07-13T02:38:31;13.60;;;10.90;;
9997;SDS011;5038;53.064;8.624;2023-07-13T02:41:01;11.27;;;10.33;;
9997;SDS011;5038;53.064;8.624;2023-07-13T02:43:29;10.20;;;9.27;;
9997;SDS011;5038;53.064;8.624;2023-07-13T02:45:58;11.47;;;10.20;;
9997;SDS011;5038;53.064;8.624;2023-07-13T02:48:31;9.70;;;8.90;;
9997;SDS011;5038;53.064;8.624;2023-07-13T02:51:00;10.00;;;9.17;;
9997;SDS011;5038;53.064;8.624;2023-07-13T02:53:28;11.90;;;9.67;;
9997;SDS011;5038;53.064;8.624;2023-07-13T02:55:57;12.60;;;9.53;;
9997;SDS011;5038;53.064;8.624;2023-07-13T02:58:25;9.43;;;8.63;;
9997;SDS011;5038;53.064;8.624;2023-07-13T03:00:53;9.93;;;8.97;;
9997;SDS011;5038;53.064;8.624;2023-07-13T03:03:24;10.90;;;8.03;;
9997;SDS011;5038;53.064;8.624;2023-07-13T03:05:59;9.83;;;8.80;;
9997;SDS011;5038;53.064;8.624;2023-07-13T03:08:35;9.60;;;8.67;;
9997;SDS011;5038;53.064;8.624;2023-07-13T03:11:04;8.70;;;7.90;;
9997;SDS011;5038;53.064;8.624;2023-07-13T03:13:36;9.30;;;8.27;;
9997;SDS011;5038;53.064;8.624;2023-07-13T03:16:05;9.90;;;7.87;;
9997;SDS011;5038;53.064;8.624;2023-07-13T03:18:34;7.90;;;6.50;;
9997;SDS011;5038;53.064;8.624;2023-07-13T03:21:07;7.53;;;5.83;;
9997;SDS011;5038;53.064;8.624;2023-07-13T03:23:35;8.60;;;5.97;;
9997;SDS011;5038;53.064;8.624;2023-07-13T03:26:05;7.23;;;6.00;;
9997;SDS011;5038;53.064;8.624;2023-07-13T03:28:34;9.17;;;5.30;;
9997;SDS011;5038;53.064;8.624;2023-07-13T03:31:05;7.47;;;5.47;;
9997;SDS011;5038;53.064;8.624;2023-07-13T03:33:35;6.90;;;4.90;;
9997;SDS011;5038;53.064;8.624;2023-07-13T03:36:05;8.23;;;4.90;;
9997;SDS011;5038;53.064;8.624;2023-07-13T03:38:37;9.13;;;5.30;;
9997;SDS011;5038;53.064;8.624;2023-07-13T03:41:05;11.03;;;5.27;;
9997;SDS011;5038;53.064;8.624;2023-07-13T03:43:34;11.73;;;5.20;;
9997;SDS011;5038;53.064;8.624;2023-07-13T03:46:03;10.13;;;5.13;;
9997;SDS011;5038;53.064;8.624;2023-07-13T03:48:31;8.50;;;5.03;;
9997;SDS011;5038;53.064;8.624;2023-07-13T03:50:59;8.20;;;4.40;;
9997;SDS011;5038;53.064;8.624;2023-07-13T03:53:30;8.13;;;5.13;;
9997;SDS011;5038;53.064;8.624;2023-07-13T03:55:58;8.03;;;4.47;;
9997;SDS011;5038;53.064;8.624;2023-07-13T03:58:27;6.17;;;4.60;;
9997;SDS011;5038;53.064;8.624;2023-07-13T04:01:08;9.33;;;4.60;;
9997;SDS011;5038;53.064;8.624;2023-07-13T04:03:38;9.77;;;4.80;;
9997;SDS011;5038;53.064;8.624;2023-07-13T04:06:07;11.27;;;5.23;;
9997;SDS011;5038;53.064;8.624;2023-07-13T04:08:44;9.53;;;4.57;;
9997;SDS011;5038;53.064;8.624;2023-07-13T04:11:13;8.00;;;4.10;;
9997;SDS011;5038;53.064;8.624;2023-07-13T04:13:41;10.37;;;4.30;;
9997;SDS011;5038;53.064;8.624;2023-07-13T04:16:09;8.30;;;3.50;;
9997;SDS011;5038;53.064;8.624;2023-07-13T04:18:37;7.90;;;4.30;;
9997;SDS011;5038;53.064;8.624;2023-07-13T04:21:06;9.77;;;4.07;;
9997;SDS011;5038;53.064;8.624;2023-07-13T04:23:34;7.43;;;4.50;;
9997;SDS011;5038;53.064;8.624;2023-07-13T04:26:04;8.03;;;3.80;;
9997;SDS011;5038;53.064;8.624;2023-07-13T04:28:33;8.47;;;3.83;;
9997;SDS011;5038;53.064;8.624;2023-07-13T04:31:02;6.60;;;4.30;;
9997;SDS011;5038;53.064;8.624;2023-07-13T04:33:30;8.40;;;5.10;;
9997;SDS011;5038;53.064;8.624;2023-07-13T04:35:59;8.27;;;4.00;;
9997;SDS011;5038;53.064;8.624;2023-07-13T04:38:29;9.87;;;4.63;;
9997;SDS011;5038;53.064;8.624;2023-07-13T04:41:02;12.00;;;4.43;;
9997;SDS011;5038;53.064;8.624;2023-07-13T04:43:33;10.53;;;5.00;;
9997;SDS011;5038;53.064;8.624;2023-07-13T04:46:03;9.97;;;3.87;;
9997;SDS011;5038;53.064;8.624;2023-07-13T04:48:35;6.73;;;3.60;;
9997;SDS011;5038;53.064;8.624;2023-07-13T04:51:04;7.30;;;3.87;;
9997;SDS011;5038;53.064;8.624;2023-07-13T04:53:32;11.27;;;4.00;;
9997;SDS011;5038;53.064;8.624;2023-07-13T04:56:01;9.10;;;4.43;;
9997;SDS011;5038;53.064;8.624;2023-07-13T04:58:32;12.93;;;4.33;;
9997;SDS011;5038;53.064;8.624;2023-07-13T05:01:01;10.20;;;4.20;;
9997;SDS011;5038;53.064;8.624;2023-07-13T05:03:31;8.70;;;5.03;;
9997;SDS011;5038;53.064;8.624;2023-07-13T05:06:00;7.93;;;4.40;;
9997;SDS011;5038;53.064;8.624;2023-07-13T05:08:31;7.03;;;3.90;;
9997;SDS011;5038;53.064;8.624;2023-07-13T05:10:59;6.23;;;4.37;;
9997;SDS011;5038;53.064;8.624;2023-07-13T05:13:28;8.63;;;3.87;;
9997;SDS011;5038;53.064;8.624;2023-07-13T05:15:59;11.00;;;4.30;;
9997;SDS011;5038;53.064;8.624;2023-07-13T05:18:29;8.33;;;4.77;;
9997;SDS011;5038;53.064;8.624;2023-07-13T05:21:00;14.90;;;4.67;;
9997;SDS011;5038;53.064;8.624;2023-07-13T05:23:29;8.00;;;4.33;;
9997;SDS011;5038;53.064;8.624;2023-07-13T05:25:57;10.23;;;4.77;;
9997;SDS011;5038;53.064;8.624;2023-07-13T05:28:27;7.90;;;4.20;;
9997;SDS011;5038;53.064;8.624;2023-07-13T05:30:56;10.87;;;5.10;;
9997;SDS011;5038;53.064;8.624;2023-07-13T05:33:27;6.57;;;4.50;;
9997;SDS011;5038;53.064;8.624;2023-07-13T05:35:55;8.37;;;4.83;;
9997;SDS011;5038;53.064;8.624;2023-07-13T05:38:24;14.77;;;4.57;;
9997;SDS011;5038;53.064;8.624;2023-07-13T05:40:53;9.57;;;4.73;;
9997;SDS011;5038;53.064;8.624;2023-07-13T05:43:24;10.80;;;4.60;;
9997;SDS011;5038;53.064;8.624;2023-07-13T05:45:55;9.13;;;3.93;;
9997;SDS011;5038;53.064;8.624;2023-07-13T05:48:25;8.43;;;4.23;;
9997;SDS011;5038;53.064;8.624;2023-07-13T05:50:53;8.77;;;4.87;;
9997;SDS011;5038;53.064;8.624;2023-07-13T05:53:22;8.10;;;4.40;;
9997;SDS011;5038;53.064;8.624;2023-07-13T05:55:50;6.80;;;3.90;;
9997;SDS011;5038;53.064;8.624;2023-07-13T05:58:21;7.70;;;4.30;;
9997;SDS011;5038;53.064;8.624;2023-07-13T06:00:59;10.73;;;4.73;;
9997;SDS011;5038;53.064;8.624;2023-07-13T06:03:30;11.97;;;5.40;;
9997;SDS011;5038;53.064;8.624;2023-07-13T06:05:59;10.70;;;4.57;;
9997;SDS011;5038;53.064;8.624;2023-07-13T06:08:28;11.30;;;4.90;;
9997;SDS011;5038;53.064;8.624;2023-07-13T06:11:01;14.50;;;4.70;;
9997;SDS011;5038;53.064;8.624;2023-07-13T06:13:34;11.60;;;4.60;;
9997;SDS011;5038;53.064;8.624;2023-07-13T06:16:03;10.83;;;4.83;;
9997;SDS011;5038;53.064;8.624;2023-07-13T06:18:34;8.27;;;3.77;;
9997;SDS011;5038;53.064;8.624;2023-07-13T06:21:08;12.10;;;5.50;;
9997;SDS011;5038;53.064;8.624;2023-07-13T06:23:38;8.90;;;4.50;;
9997;SDS011;5038;53.064;8.624;2023-07-13T06:26:06;6.60;;;4.33;;
9997;SDS011;5038;53.064;8.624;2023-07-13T06:28:36;11.80;;;4.93;;
9997;SDS011;5038;53.064;8.624;2023-07-13T06:31:06;7.83;;;4.17;;
9997;SDS011;5038;53.064;8.624;2023-07-13T06:33:38;10.97;;;3.83;;
9997;SDS011;5038;53.064;8.624;2023-07-13T06:36:07;8.17;;;4.20;;
9997;SDS011;5038;53.064;8.624;2023-07-13T06:38:36;8.10;;;4.43;;
9997;SDS011;5038;53.064;8.624;2023-07-13T06:41:05;8.03;;;4.57;;
9997;SDS011;5038;53.064;8.624;2023-07-13T06:43:36;8.40;;;4.70;;
9997;SDS011;5038;53.064;8.624;2023-07-13T06:46:05;7.27;;;4.20;;
9997;SDS011;5038;53.064;8.624;2023-07-13T06:48:33;7.37;;;4.43;;
9997;SDS011;5038;53.064;8.624;2023-07-13T06:51:04;8.47;;;4.37;;
9997;SDS011;5038;53.064;8.624;2023-07-13T06:53:37;9.27;;;5.07;;
9997;SDS011;5038;53.064;8.624;2023-07-13T06:56:05;8.87;;;4.77;;
9997;SDS011;5038;53.064;8.624;2023-07-13T06:58:34;9.80;;;4.70;;
9997;SDS011;5038;53.064;8.624;2023-07-13T07:01:03;18.97;;;5.40;;
9997;SDS011;5038;53.064;8.624;2023-07-13T07:03:34;12.03;;;5.33;;
9997;SDS011;5038;53.064;8.624;2023-07-13T07:06:10;10.37;;;5.07;;
9997;SDS011;5038;53.064;8.624;2023-07-13T07:08:42;7.07;;;4.27;;
9997;SDS011;5038;53.064;8.624;2023-07-13T07:11:11;9.70;;;4.60;;
9997;SDS011;5038;53.064;8.624;2023-07-13T07:13:41;11.63;;;5.37;;
9997;SDS011;5038;53.064;8.624;2023-07-13T07:16:10;9.43;;;4.43;;
9997;SDS011;5038;53.064;8.624;2023-07-13T07:18:39;7.70;;;4.50;;
9997;SDS011;5038;53.064;8.624;2023-07-13T07:21:09;8.80;;;5.00;;
9997;SDS011;5038;53.064;8.624;2023-07-13T07:23:38;12.77;;;4.83;;
9997;SDS011;5038;53.064;8.624;2023-07-13T07:26:09;16.60;;;5.47;;
9997;SDS011;5038;53.064;8.624;2023-07-13T07:28:38;9.10;;;4.80;;
9997;SDS011;5038;53.064;8.624;2023-07-13T07:31:09;9.53;;;4.60;;
9997;SDS011;5038;53.064;8.624;2023-07-13T07:33:41;7.03;;;4.30;;
9997;SDS011;5038;53.064;8.624;2023-07-13T07:36:11;8.07;;;4.13;;
9997;SDS011;5038;53.064;8.624;2023-07-13T07:38:42;8.13;;;4.07;;
9997;SDS011;5038;53.064;8.624;2023-07-13T07:41:11;12.00;;;4.73;;
9997;SDS011;5038;53.064;8.624;2023-07-13T07:43:42;5.67;;;4.63;;
9997;SDS011;5038;53.064;8.624;2023-07-13T07:46:10;7.30;;;4.60;;
9997;SDS011;5038;53.064;8.624;2023-07-13T07:48:39;7.30;;;4.57;;
9997;SDS011;5038;53.064;8.624;2023-07-13T07:51:08;7.73;;;4.27;;
9997;SDS011;5038;53.064;8.624;2023-07-13T07:53:38;7.67;;;4.60;;
9997;SDS011;5038;53.064;8.624;2023-07-13T07:56:07;7.40;;;5.10;;
9997;SDS011;5038;53.064;8.624;2023-07-13T07:58:39;5.67;;;3.70;;
9997;SDS011;5038;53.064;8.624;2023-07-13T08:01:10;9.67;;;5.00;;
9997;SDS011;5038;53.064;8.624;2023-07-13T08:03:42;5.80;;;3.70;;
9997;SDS011;5038;53.064;8.624;2023-07-13T08:06:13;11.53;;;4.87;;
9997;SDS011;5038;53.064;8.624;2023-07-13T08:09:03;5.43;;;4.13;;
9997;SDS011;5038;53.064;8.624;2023-07-13T08:11:32;7.60;;;4.37;;
9997;SDS011;5038;53.064;8.624;2023-07-13T08:14:03;6.80;;;3.90;;
9997;SDS011;5038;53.064;8.624;2023-07-13T08:16:31;6.47;;;4.00;;
9997;SDS011;5038;53.064;8.624;2023-07-13T08:19:01;7.13;;;4.40;;
9997;SDS011;5038;53.064;8.624;2023-07-13T08:21:30;7.17;;;4.33;;
9997;SDS011;5038;53.064;8.624;2023-07-13T08:23:58;8.13;;;5.37;;
9997;SDS011;5038;53.064;8.624;2023-07-13T08:26:28;6.43;;;4.80;;
9997;SDS011;5038;53.064;8.624;2023-07-13T08:28:56;6.80;;;4.47;;
9997;SDS011;5038;53.064;8.624;2023-07-13T08:31:25;7.40;;;4.80;;
9997;SDS011;5038;53.064;8.624;2023-07-13T08:33:53;7.27;;;5.00;;
9997;SDS011;5038;53.064;8.624;2023-07-13T08:36:22;8.63;;;5.00;;
9997;SDS011;5038;53.064;8.624;2023-07-13T08:38:51;10.03;;;7.60;;
9997;SDS011;5038;53.064;8.624;2023-07-13T08:41:20;7.13;;;4.43;;
9997;SDS011;5038;53.064;8.624;2023-07-13T08:43:51;7.17;;;5.27;;
9997;SDS011;5038;53.064;8.624;2023-07-13T08:46:24;7.23;;;4.97;;
9997;SDS011;5038;53.064;8.624;2023-07-13T08:48:57;6.73;;;5.23;;
9997;SDS011;5038;53.064;8.624;2023-07-13T08:51:38;6.93;;;5.13;;
9997;SDS011;5038;53.064;8.624;2023-07-13T08:54:15;5.07;;;4.13;;
9997;SDS011;5038;53.064;8.624;2023-07-13T08:56:48;7.50;;;4.53;;
9997;SDS011;5038;53.064;8.624;2023-07-13T08:59:21;6.60;;;4.90;;
9997;SDS011;5038;53.064;8.624;2023-07-13T09:01:55;8.23;;;4.60;;
9997;SDS011;5038;53.064;8.624;2023-07-13T09:04:34;6.80;;;4.80;;
9997;SDS011;5038;53.064;8.624;2023-07-13T09:07:11;5.47;;;4.07;;
9997;SDS011;5038;53.064;8.624;2023-07-13T09:09:49;9.73;;;5.70;;
9997;SDS011;5038;53.064;8.624;2023-07-13T09:12:35;6.73;;;4.10;;
9997;SDS011;5038;53.064;8.624;2023-07-13T09:15:22;5.23;;;3.33;;
9997;SDS011;5038;53.064;8.624;2023-07-13T09:17:59;8.60;;;4.30;;
9997;SDS011;5038;53.064;8.624;2023-07-13T09:20:32;6.07;;;4.33;;
9997;SDS011;5038;53.064;8.624;2023-07-13T09:23:04;4.80;;;3.30;;
9997;SDS011;5038;53.064;8.624;2023-07-13T09:25:37;4.27;;;3.53;;
9997;SDS011;5038;53.064;8.624;2023-07-13T09:28:10;6.57;;;3.40;;
9997;SDS011;5038;53.064;8.624;2023-07-13T09:30:45;3.67;;;3.30;;
9997;SDS011;5038;53.064;8.624;2023-07-13T09:33:18;3.70;;;3.17;;
9997;SDS011;5038;53.064;8.624;2023-07-13T09:35:46;8.30;;;3.50;;
9997;SDS011;5038;53.064;8.624;2023-07-13T09:38:15;5.80;;;3.40;;
9997;SDS011;5038;53.064;8.624;2023-07-13T09:40:53;6.10;;;3.40;;
9997;SDS011;5038;53.064;8.624;2023-07-13T09:43:28;8.97;;;3.77;;
9997;SDS011;5038;53.064;8.624;2023-07-13T09:45:58;4.80;;;3.47;;
9997;SDS011;5038;53.064;8.624;2023-07-13T09:48:26;9.10;;;4.20;;
9997;SDS011;5038;53.064;8.624;2023-07-13T09:51:06;8.20;;;3.10;;
9997;SDS011;5038;53.064;8.624;2023-07-13T09:53:41;5.83;;;2.80;;
9997;SDS011;5038;53.064;8.624;2023-07-13T09:56:18;4.00;;;3.33;;
9997;SDS011;5038;53.064;8.624;2023-07-13T09:58:48;4.90;;;3.63;;
9997;SDS011;5038;53.064;8.624;2023-07-13T10:01:18;5.70;;;3.30;;
9997;SDS011;5038;53.064;8.624;2023-07-13T10:03:59;5.53;;;3.10;;
9997;SDS011;5038;53.064;8.624;2023-07-13T10:06:28;6.43;;;3.40;;
9997;SDS011;5038;53.064;8.624;2023-07-13T10:08:56;5.90;;;3.03;;
9997;SDS011;5038;53.064;8.624;2023-07-13T10:11:26;4.33;;;2.83;;
9997;SDS011;5038;53.064;8.624;2023-07-13T10:13:57;6.50;;;3.73;;
9997;SDS011;5038;53.064;8.624;2023-07-13T10:16:30;7.23;;;2.90;;
9997;SDS011;5038;53.064;8.624;2023-07-13T10:19:02;7.60;;;3.43;;
9997;SDS011;5038;53.064;8.624;2023-07-13T10:21:41;5.80;;;3.27;;
9997;SDS011;5038;53.064;8.624;2023-07-13T10:24:16;5.80;;;3.20;;
9997;SDS011;5038;53.064;8.624;2023-07-13T10:26:50;3.87;;;3.47;;
9997;SDS011;5038;53.064;8.624;2023-07-13T10:29:24;5.20;;;4.40;;
9997;SDS011;5038;53.064;8.624;2023-07-13T10:31:56;6.03;;;4.07;;
9997;SDS011;5038;53.064;8.624;2023-07-13T10:34:24;6.87;;;4.23;;
9997;SDS011;5038;53.064;8.624;2023-07-13T10:36:52;4.63;;;3.90;;
9997;SDS011;5038;53.064;8.624;2023-07-13T10:39:22;4.67;;;3.50;;
9997;SDS011;5038;53.064;8.624;2023-07-13T10:41:55;4.10;;;2.87;;
9997;SDS011;5038;53.064;8.624;2023-07-13T10:44:28;5.23;;;2.83;;
9997;SDS011;5038;53.064;8.624;2023-07-13T10:47:01;3.43;;;2.60;;
9997;SDS011;5038;53.064;8.624;2023-07-13T10:49:32;2.93;;;2.70;;
9997;SDS011;5038;53.064;8.624;2023-07-13T10:52:03;3.07;;;2.77;;
9997;SDS011;5038;53.064;8.624;2023-07-13T10:54:32;5.10;;;3.50;;
9997;SDS011;5038;53.064;8.624;2023-07-13T10:57:07;5.27;;;4.33;;
9997;SDS011;5038;53.064;8.624;2023-07-13T10:59:44;4.03;;;3.73;;
9997;SDS011;5038;53.064;8.624;2023-07-13T11:02:20;5.57;;;3.57;;
9997;SDS011;5038;53.064;8.624;2023-07-13T11:04:53;4.20;;;3.80;;
9997;SDS011;5038;53.064;8.624;2023-07-13T11:07:24;4.50;;;3.17;;
9997;SDS011;5038;53.064;8.624;2023-07-13T11:09:54;5.37;;;3.43;;
9997;SDS011;5038;53.064;8.624;2023-07-13T11:12:28;4.30;;;3.60;;
9997;SDS011;5038;53.064;8.624;2023-07-13T11:15:12;4.30;;;3.90;;
9997;SDS011;5038;53.064;8.624;2023-07-13T11:17:49;5.70;;;3.80;;
9997;SDS011;5038;53.064;8.624;2023-07-13T11:23:07;5.50;;;3.60;;
9997;SDS011;5038;53.064;8.624;2023-07-13T11:25:44;3.60;;;3.30;;
9997;SDS011;5038;53.064;8.624;2023-07-13T11:28:15;2.93;;;2.30;;
9997;SDS011;5038;53.064;8.624;2023-07-13T11:30:46;2.40;;;1.50;;
9997;SDS011;5038;53.064;8.624;2023-07-13T11:33:18;2.60;;;2.00;;
9997;SDS011;5038;53.064;8.624;2023-07-13T11:35:51;2.20;;;1.93;;
9997;SDS011;5038;53.064;8.624;2023-07-13T11:38:27;3.00;;;2.20;;
9997;SDS011;5038;53.064;8.624;2023-07-13T11:41:00;1.90;;;1.70;;
9997;SDS011;5038;53.064;8.624;2023-07-13T11:43:30;2.00;;;1.70;;
9997;SDS011;5038;53.064;8.624;2023-07-13T11:46:13;2.87;;;1.80;;
9997;SDS011;5038;53.064;8.624;2023-07-13T11:48:44;2.17;;;1.93;;
9997;SDS011;5038;53.064;8.624;2023-07-13T11:51:16;2.37;;;1.60;;
9997;SDS011;5038;53.064;8.624;2023-07-13T11:53:49;2.40;;;2.20;;
9997;SDS011;5038;53.064;8.624;2023-07-13T11:56:22;3.90;;;2.53;;
9997;SDS011;5038;53.064;8.624;2023-07-13T11:58:53;3.67;;;2.40;;
9997;SDS011;5038;53.064;8.624;2023-07-13T12:01:23;4.40;;;2.67;;
9997;SDS011;5038;53.064;8.624;2023-07-13T12:03:54;3.03;;;2.30;;
9997;SDS011;5038;53.064;8.624;2023-07-13T12:06:26;2.50;;;2.13;;
9997;SDS011;5038;53.064;8.624;2023-07-13T12:08:56;3.30;;;2.53;;
9997;SDS011;5038;53.064;8.624;2023-07-13T12:11:26;2.60;;;2.20;;
9997;SDS011;5038;53.064;8.624;2023-07-13T12:13:55;2.33;;;2.13;;
9997;SDS011;5038;53.064;8.624;2023-07-13T12:16:25;2.30;;;2.10;;
9997;SDS011;5038;53.064;8.624;2023-07-13T12:18:57;2.40;;;1.90;;
9997;SDS011;5038;53.064;8.624;2023-07-13T12:21:28;2.63;;;2.40;;
9997;SDS011;5038;53.064;8.624;2023-07-13T12:23:58;1.97;;;1.77;;
9997;SDS011;5038;53.064;8.624;2023-07-13T12:26:28;2.97;;;2.30;;
9997;SDS011;5038;53.064;8.624;2023-07-13T12:28:58;2.63;;;2.00;;
9997;SDS011;5038;53.064;8.624;2023-07-13T12:31:33;2.53;;;2.00;;
9997;SDS011;5038;53.064;8.624;2023-07-13T12:34:06;2.90;;;2.27;;
9997;SDS011;5038;53.064;8.624;2023-07-13T12:36:36;3.40;;;2.10;;
9997;SDS011;5038;53.064;8.624;2023-07-13T12:39:12;2.10;;;1.77;;
9997;SDS011;5038;53.064;8.624;2023-07-13T12:41:42;3.87;;;2.10;;
9997;SDS011;5038;53.064;8.624;2023-07-13T12:44:12;2.00;;;1.80;;
9997;SDS011;5038;53.064;8.624;2023-07-13T12:46:50;4.33;;;1.53;;
9997;SDS011;5038;53.064;8.624;2023-07-13T12:49:26;2.93;;;1.80;;
9997;SDS011;5038;53.064;8.624;2023-07-13T12:51:57;2.47;;;1.97;;
9997;SDS011;5038;53.064;8.624;2023-07-13T12:54:27;2.37;;;1.63;;
9997;SDS011;5038;53.064;8.624;2023-07-13T12:56:56;4.37;;;1.83;;
9997;SDS011;5038;53.064;8.624;2023-07-13T12:59:29;2.23;;;1.60;;
9997;SDS011;5038;53.064;8.624;2023-07-13T13:02:05;2.40;;;1.80;;
9997;SDS011;5038;53.064;8.624;2023-07-13T13:04:57;2.60;;;1.70;;
9997;SDS011;5038;53.064;8.624;2023-07-13T13:07:25;3.90;;;1.70;;
9997;SDS011;5038;53.064;8.624;2023-07-13T13:09:55;1.67;;;1.40;;
9997;SDS011;5038;53.064;8.624;2023-07-13T13:12:24;2.70;;;1.73;;
9997;SDS011;5038;53.064;8.624;2023-07-13T13:14:53;2.07;;;1.87;;
9997;SDS011;5038;53.064;8.624;2023-07-13T13:17:29;3.00;;;1.50;;
9997;SDS011;5038;53.064;8.624;2023-07-13T13:20:00;1.80;;;1.30;;
9997;SDS011;5038;53.064;8.624;2023-07-13T13:25:17;2.20;;;1.70;;
9997;SDS011;5038;53.064;8.624;2023-07-13T13:27:46;2.73;;;2.00;;
9997;SDS011;5038;53.064;8.624;2023-07-13T13:30:14;4.97;;;2.50;;
9997;SDS011;5038;53.064;8.624;2023-07-13T13:32:45;2.40;;;2.13;;
9997;SDS011;5038;53.064;8.624;2023-07-13T13:35:17;2.40;;;2.00;;
9997;SDS011;5038;53.064;8.624;2023-07-13T13:37:47;7.87;;;2.20;;
9997;SDS011;5038;53.064;8.624;2023-07-13T13:40:17;2.10;;;1.90;;
9997;SDS011;5038;53.064;8.624;2023-07-13T13:42:47;2.77;;;2.20;;
9997;SDS011;5038;53.064;8.624;2023-07-13T13:45:17;2.80;;;2.50;;
9997;SDS011;5038;53.064;8.624;2023-07-13T13:47:46;3.23;;;2.30;;
9997;SDS011;5038;53.064;8.624;2023-07-13T13:50:17;2.27;;;2.07;;
9997;SDS011;5038;53.064;8.624;2023-07-13T13:52:49;2.60;;;2.40;;
9997;SDS011;5038;53.064;8.624;2023-07-13T13:55:18;2.80;;;2.30;;
9997;SDS011;5038;53.064;8.624;2023-07-13T13:57:50;3.40;;;2.17;;
9997;SDS011;5038;53.064;8.624;2023-07-13T14:00:20;2.43;;;2.23;;
9997;SDS011;5038;53.064;8.624;2023-07-13T14:02:48;3.63;;;2.63;;
9997;SDS011;5038;53.064;8.624;2023-07-13T14:05:20;2.90;;;2.40;;
9997;SDS011;5038;53.064;8.624;2023-07-13T14:07:50;3.10;;;2.53;;
9997;SDS011;5038;53.064;8.624;2023-07-13T14:10:19;4.97;;;3.07;;
9997;SDS011;5038;53.064;8.624;2023-07-13T14:12:48;4.90;;;2.83;;
9997;SDS011;5038;53.064;8.624;2023-07-13T14:15:20;4.20;;;3.80;;
9997;SDS011;5038;53.064;8.624;2023-07-13T14:17:50;6.30;;;3.30;;
9997;SDS011;5038;53.064;8.624;2023-07-13T14:20:20;3.20;;;2.90;;
9997;SDS011;5038;53.064;8.624;2023-07-13T14:22:50;3.47;;;3.10;;
9997;SDS011;5038;53.064;8.624;2023-07-13T14:25:19;4.80;;;4.40;;
9997;SDS011;5038;53.064;8.624;2023-07-13T14:27:49;3.97;;;3.67;;
9997;SDS011;5038;53.064;8.624;2023-07-13T14:30:22;4.53;;;3.80;;
9997;SDS011;5038;53.064;8.624;2023-07-13T14:32:50;7.73;;;4.53;;
9997;SDS011;5038;53.064;8.624;2023-07-13T14:35:21;4.37;;;4.03;;
9997;SDS011;5038;53.064;8.624;2023-07-13T14:37:50;6.93;;;3.93;;
9997;SDS011;5038;53.064;8.624;2023-07-13T14:40:19;5.10;;;4.40;;
9997;SDS011;5038;53.064;8.624;2023-07-13T14:42:52;3.50;;;3.20;;
9997;SDS011;5038;53.064;8.624;2023-07-13T14:45:20;3.90;;;3.60;;
9997;SDS011;5038;53.064;8.624;2023-07-13T14:47:48;2.70;;;2.40;;
9997;SDS011;5038;53.064;8.624;2023-07-13T14:50:17;2.63;;;2.40;;
9997;SDS011;5038;53.064;8.624;2023-07-13T14:52:48;3.20;;;2.90;;
9997;SDS011;5038;53.064;8.624;2023-07-13T14:55:17;3.10;;;2.57;;
9997;SDS011;5038;53.064;8.624;2023-07-13T14:57:46;2.90;;;2.70;;
9997;SDS011;5038;53.064;8.624;2023-07-13T15:00:15;5.80;;;2.30;;
9997;SDS011;5038;53.064;8.624;2023-07-13T15:02:46;2.70;;;2.50;;
9997;SDS011;5038;53.064;8.624;2023-07-13T15:05:19;3.60;;;2.87;;
9997;SDS011;5038;53.064;8.624;2023-07-13T15:07:52;2.13;;;1.80;;
9997;SDS011;5038;53.064;8.624;2023-07-13T15:10:22;2.90;;;1.30;;
9997;SDS011;5038;53.064;8.624;2023-07-13T15:12:56;4.07;;;2.30;;
9997;SDS011;5038;53.064;8.624;2023-07-13T15:15:26;3.20;;;2.03;;
9997;SDS011;5038;53.064;8.624;2023-07-13T15:17:55;6.83;;;2.87;;
9997;SDS011;5038;53.064;8.624;2023-07-13T15:20:25;3.93;;;2.37;;
9997;SDS011;5038;53.064;8.624;2023-07-13T15:23:00;3.80;;;2.43;;
9997;SDS011;5038;53.064;8.624;2023-07-13T15:25:29;3.93;;;2.10;;
9997;SDS011;5038;53.064;8.624;2023-07-13T15:27:59;2.63;;;2.00;;
9997;SDS011;5038;53.064;8.624;2023-07-13T15:30:29;2.47;;;1.90;;
9997;SDS011;5038;53.064;8.624;2023-07-13T15:33:11;2.20;;;1.80;;
9997;SDS011;5038;53.064;8.624;2023-07-13T15:35:42;2.80;;;1.70;;
9997;SDS011;5038;53.064;8.624;2023-07-13T15:38:17;3.90;;;2.37;;
9997;SDS011;5038;53.064;8.624;2023-07-13T15:40:47;2.50;;;1.93;;
9997;SDS011;5038;53.064;8.624;2023-07-13T15:43:16;3.37;;;2.40;;